Terminal Aerodrome Forecast
Issued by NWS

Home | Current Version | Previous Version | Text Only | Print | Product List | Glossary On
Versions: 1 2 3 4 5 6 7 8 9 10 11 12 13 14 15 16 17 18 19 20 21 22 23 24 25 26 27 28 29 30
000
FTUS44 KLZK 210520
TAFADF
TAF
KADF 210520Z 2106/2206 20005KT P6SM SCT150
     FM211200 18003KT 4SM BR BKN010
      TEMPO 2112/2116 2SM -DZ OVC005
     FM211800 17005KT P6SM VCTS BKN060CB
     FM212100 18008KT P6SM VCTS BKN040CB PROB30 2121/2203 5SM -TSRA
      BR BKN025CB=

USA.gov is the U.S. government's official web portal to all federal, state and local government web resources and services.